sensor_id;sensor_type;location;lat;lon;timestamp;P1;durP1;ratioP1;P2;durP2;ratioP2
54745;SDS011;40640;48.130;11.356;2023-04-07T00:00:01;9.90;;;5.80;;
54745;SDS011;40640;48.130;11.356;2023-04-07T00:04:11;11.65;;;6.30;;
54745;SDS011;40640;48.130;11.356;2023-04-07T00:08:15;12.40;;;6.32;;
54745;SDS011;40640;48.130;11.356;2023-04-07T00:12:19;11.70;;;6.47;;
54745;SDS011;40640;48.130;11.356;2023-04-07T00:16:22;12.95;;;6.75;;
54745;SDS011;40640;48.130;11.356;2023-04-07T00:20:25;9.10;;;5.57;;
54745;SDS011;40640;48.130;11.356;2023-04-07T00:24:27;16.77;;;7.60;;
54745;SDS011;40640;48.130;11.356;2023-04-07T00:28:36;13.18;;;6.30;;
54745;SDS011;40640;48.130;11.356;2023-04-07T00:32:39;13.63;;;6.95;;
54745;SDS011;40640;48.130;11.356;2023-04-07T00:36:42;13.23;;;6.65;;
54745;SDS011;40640;48.130;11.356;2023-04-07T00:40:46;13.38;;;6.43;;
54745;SDS011;40640;48.130;11.356;2023-04-07T00:44:51;10.93;;;6.07;;
54745;SDS011;40640;48.130;11.356;2023-04-07T00:48:54;10.20;;;6.43;;
54745;SDS011;40640;48.130;11.356;2023-04-07T00:52:57;9.27;;;5.47;;
54745;SDS011;40640;48.130;11.356;2023-04-07T00:57:00;15.65;;;6.05;;
54745;SDS011;40640;48.130;11.356;2023-04-07T01:01:06;10.18;;;5.70;;
54745;SDS011;40640;48.130;11.356;2023-04-07T01:05:12;10.75;;;5.85;;
54745;SDS011;40640;48.130;11.356;2023-04-07T01:09:24;11.68;;;5.45;;
54745;SDS011;40640;48.130;11.356;2023-04-07T01:13:33;8.90;;;5.40;;
54745;SDS011;40640;48.130;11.356;2023-04-07T01:17:52;9.68;;;5.10;;
54745;SDS011;40640;48.130;11.356;2023-04-07T01:22:04;10.32;;;4.95;;
54745;SDS011;40640;48.130;11.356;2023-04-07T01:26:15;8.23;;;4.57;;
54745;SDS011;40640;48.130;11.356;2023-04-07T01:30:22;9.50;;;4.63;;
54745;SDS011;40640;48.130;11.356;2023-04-07T01:34:29;8.27;;;4.70;;
54745;SDS011;40640;48.130;11.356;2023-04-07T01:38:34;9.70;;;4.35;;
54745;SDS011;40640;48.130;11.356;2023-04-07T01:42:38;9.20;;;4.72;;
54745;SDS011;40640;48.130;11.356;2023-04-07T01:46:42;5.45;;;3.75;;
54745;SDS011;40640;48.130;11.356;2023-04-07T01:50:45;4.65;;;3.40;;
54745;SDS011;40640;48.130;11.356;2023-04-07T01:54:49;6.57;;;3.60;;
54745;SDS011;40640;48.130;11.356;2023-04-07T01:58:52;5.57;;;3.30;;
54745;SDS011;40640;48.130;11.356;2023-04-07T02:02:58;7.35;;;3.60;;
54745;SDS011;40640;48.130;11.356;2023-04-07T02:07:24;6.53;;;3.85;;
54745;SDS011;40640;48.130;11.356;2023-04-07T02:11:31;10.48;;;3.47;;
54745;SDS011;40640;48.130;11.356;2023-04-07T02:15:37;6.07;;;3.58;;
54745;SDS011;40640;48.130;11.356;2023-04-07T02:19:43;6.25;;;3.45;;
54745;SDS011;40640;48.130;11.356;2023-04-07T02:23:48;7.32;;;3.65;;
54745;SDS011;40640;48.130;11.356;2023-04-07T02:27:51;7.05;;;3.78;;
54745;SDS011;40640;48.130;11.356;2023-04-07T02:31:54;5.93;;;4.28;;
54745;SDS011;40640;48.130;11.356;2023-04-07T02:35:59;11.23;;;3.95;;
54745;SDS011;40640;48.130;11.356;2023-04-07T02:40:02;7.28;;;4.03;;
54745;SDS011;40640;48.130;11.356;2023-04-07T02:44:05;8.02;;;4.53;;
54745;SDS011;40640;48.130;11.356;2023-04-07T02:48:09;10.88;;;4.13;;
54745;SDS011;40640;48.130;11.356;2023-04-07T02:52:13;6.47;;;4.30;;
54745;SDS011;40640;48.130;11.356;2023-04-07T02:56:16;8.32;;;4.15;;
54745;SDS011;40640;48.130;11.356;2023-04-07T03:00:19;6.20;;;4.28;;
54745;SDS011;40640;48.130;11.356;2023-04-07T03:04:37;8.00;;;4.70;;
54745;SDS011;40640;48.130;11.356;2023-04-07T03:08:41;7.50;;;4.60;;
54745;SDS011;40640;48.130;11.356;2023-04-07T03:12:44;8.55;;;4.50;;
54745;SDS011;40640;48.130;11.356;2023-04-07T03:16:47;8.45;;;4.70;;
54745;SDS011;40640;48.130;11.356;2023-04-07T03:20:51;8.68;;;4.80;;
54745;SDS011;40640;48.130;11.356;2023-04-07T03:24:57;7.30;;;4.85;;
54745;SDS011;40640;48.130;11.356;2023-04-07T03:29:00;6.47;;;4.63;;
54745;SDS011;40640;48.130;11.356;2023-04-07T03:33:05;8.90;;;4.82;;
54745;SDS011;40640;48.130;11.356;2023-04-07T03:37:08;7.78;;;5.07;;
54745;SDS011;40640;48.130;11.356;2023-04-07T03:41:13;9.00;;;5.22;;
54745;SDS011;40640;48.130;11.356;2023-04-07T03:45:15;7.80;;;4.80;;
54745;SDS011;40640;48.130;11.356;2023-04-07T03:49:23;8.00;;;4.95;;
54745;SDS011;40640;48.130;11.356;2023-04-07T03:53:28;7.63;;;4.90;;
54745;SDS011;40640;48.130;11.356;2023-04-07T03:57:35;7.72;;;4.68;;
54745;SDS011;40640;48.130;11.356;2023-04-07T04:01:37;9.10;;;4.10;;
54745;SDS011;40640;48.130;11.356;2023-04-07T04:05:45;9.52;;;4.85;;
54745;SDS011;40640;48.130;11.356;2023-04-07T04:09:54;8.18;;;5.18;;
54745;SDS011;40640;48.130;11.356;2023-04-07T04:13:58;8.43;;;5.35;;
54745;SDS011;40640;48.130;11.356;2023-04-07T04:18:01;8.13;;;4.90;;
54745;SDS011;40640;48.130;11.356;2023-04-07T04:22:06;12.65;;;5.75;;
54745;SDS011;40640;48.130;11.356;2023-04-07T04:26:16;9.98;;;6.13;;
54745;SDS011;40640;48.130;11.356;2023-04-07T04:30:20;8.98;;;6.07;;
54745;SDS011;40640;48.130;11.356;2023-04-07T04:34:27;10.60;;;6.15;;
54745;SDS011;40640;48.130;11.356;2023-04-07T04:38:31;9.35;;;5.68;;
54745;SDS011;40640;48.130;11.356;2023-04-07T04:42:42;11.10;;;6.43;;
54745;SDS011;40640;48.130;11.356;2023-04-07T04:46:48;12.57;;;7.80;;
54745;SDS011;40640;48.130;11.356;2023-04-07T04:50:51;12.32;;;7.18;;
54745;SDS011;40640;48.130;11.356;2023-04-07T04:54:55;13.35;;;6.88;;
54745;SDS011;40640;48.130;11.356;2023-04-07T04:59:00;18.75;;;7.70;;
54745;SDS011;40640;48.130;11.356;2023-04-07T05:03:14;14.10;;;7.80;;
54745;SDS011;40640;48.130;11.356;2023-04-07T05:07:23;18.02;;;8.93;;
54745;SDS011;40640;48.130;11.356;2023-04-07T05:11:26;16.88;;;7.97;;
54745;SDS011;40640;48.130;11.356;2023-04-07T05:15:29;13.07;;;6.68;;
54745;SDS011;40640;48.130;11.356;2023-04-07T05:19:35;13.68;;;8.30;;
54745;SDS011;40640;48.130;11.356;2023-04-07T05:23:45;13.32;;;7.72;;
54745;SDS011;40640;48.130;11.356;2023-04-07T05:27:48;13.90;;;7.90;;
54745;SDS011;40640;48.130;11.356;2023-04-07T05:31:52;14.75;;;8.32;;
54745;SDS011;40640;48.130;11.356;2023-04-07T05:35:58;14.57;;;8.18;;
54745;SDS011;40640;48.130;11.356;2023-04-07T05:40:01;16.35;;;8.55;;
54745;SDS011;40640;48.130;11.356;2023-04-07T05:44:04;11.40;;;7.78;;
54745;SDS011;40640;48.130;11.356;2023-04-07T05:48:12;11.82;;;7.20;;
54745;SDS011;40640;48.130;11.356;2023-04-07T05:52:19;13.40;;;7.90;;
54745;SDS011;40640;48.130;11.356;2023-04-07T05:56:29;11.43;;;7.15;;
54745;SDS011;40640;48.130;11.356;2023-04-07T06:00:33;13.23;;;7.70;;
54745;SDS011;40640;48.130;11.356;2023-04-07T06:04:41;12.93;;;6.55;;
54745;SDS011;40640;48.130;11.356;2023-04-07T06:08:50;9.85;;;6.82;;
54745;SDS011;40640;48.130;11.356;2023-04-07T06:12:53;10.77;;;6.70;;
54745;SDS011;40640;48.130;11.356;2023-04-07T06:16:56;12.13;;;7.25;;
54745;SDS011;40640;48.130;11.356;2023-04-07T06:20:59;10.63;;;6.47;;
54745;SDS011;40640;48.130;11.356;2023-04-07T06:25:04;10.13;;;6.47;;
54745;SDS011;40640;48.130;11.356;2023-04-07T06:29:07;11.43;;;7.20;;
54745;SDS011;40640;48.130;11.356;2023-04-07T06:33:10;14.88;;;7.97;;
54745;SDS011;40640;48.130;11.356;2023-04-07T06:37:14;12.25;;;7.10;;
54745;SDS011;40640;48.130;11.356;2023-04-07T06:41:18;10.98;;;6.95;;
54745;SDS011;40640;48.130;11.356;2023-04-07T06:45:21;12.52;;;7.25;;
54745;SDS011;40640;48.130;11.356;2023-04-07T06:49:25;14.70;;;7.00;;
54745;SDS011;40640;48.130;11.356;2023-04-07T06:53:27;13.00;;;7.15;;
54745;SDS011;40640;48.130;11.356;2023-04-07T06:57:32;10.73;;;6.32;;
54745;SDS011;40640;48.130;11.356;2023-04-07T07:01:35;13.13;;;7.05;;
54745;SDS011;40640;48.130;11.356;2023-04-07T07:05:38;15.43;;;7.22;;
54745;SDS011;40640;48.130;11.356;2023-04-07T07:09:41;11.07;;;6.40;;
54745;SDS011;40640;48.130;11.356;2023-04-07T07:13:46;11.32;;;6.43;;
54745;SDS011;40640;48.130;11.356;2023-04-07T07:17:49;12.35;;;6.72;;
54745;SDS011;40640;48.130;11.356;2023-04-07T07:21:52;11.48;;;6.43;;
54745;SDS011;40640;48.130;11.356;2023-04-07T07:25:55;11.90;;;6.90;;
54745;SDS011;40640;48.130;11.356;2023-04-07T07:30:00;12.40;;;7.38;;
54745;SDS011;40640;48.130;11.356;2023-04-07T07:34:02;13.90;;;7.40;;
54745;SDS011;40640;48.130;11.356;2023-04-07T07:38:05;9.60;;;6.88;;
54745;SDS011;40640;48.130;11.356;2023-04-07T07:42:08;10.43;;;6.43;;
54745;SDS011;40640;48.130;11.356;2023-04-07T07:46:13;11.57;;;5.97;;
54745;SDS011;40640;48.130;11.356;2023-04-07T07:50:16;9.30;;;5.85;;
54745;SDS011;40640;48.130;11.356;2023-04-07T07:54:19;7.90;;;5.40;;
54745;SDS011;40640;48.130;11.356;2023-04-07T07:58:21;10.85;;;6.72;;
54745;SDS011;40640;48.130;11.356;2023-04-07T08:02:26;7.70;;;5.88;;
54745;SDS011;40640;48.130;11.356;2023-04-07T08:06:31;9.15;;;5.68;;
54745;SDS011;40640;48.130;11.356;2023-04-07T08:10:34;9.15;;;5.47;;
54745;SDS011;40640;48.130;11.356;2023-04-07T08:14:37;9.02;;;5.32;;
54745;SDS011;40640;48.130;11.356;2023-04-07T08:18:41;7.65;;;5.30;;
54745;SDS011;40640;48.130;11.356;2023-04-07T08:22:44;11.00;;;6.13;;
54745;SDS011;40640;48.130;11.356;2023-04-07T08:26:47;8.48;;;4.63;;
54745;SDS011;40640;48.130;11.356;2023-04-07T08:30:50;8.05;;;4.82;;
54745;SDS011;40640;48.130;11.356;2023-04-07T08:34:55;7.00;;;4.57;;
54745;SDS011;40640;48.130;11.356;2023-04-07T08:38:58;5.43;;;4.60;;
54745;SDS011;40640;48.130;11.356;2023-04-07T08:43:02;6.43;;;4.90;;
54745;SDS011;40640;48.130;11.356;2023-04-07T08:47:09;8.00;;;4.47;;
54745;SDS011;40640;48.130;11.356;2023-04-07T08:51:14;6.65;;;4.70;;
54745;SDS011;40640;48.130;11.356;2023-04-07T08:55:24;7.63;;;4.53;;
54745;SDS011;40640;48.130;11.356;2023-04-07T08:59:27;3.67;;;3.38;;
54745;SDS011;40640;48.130;11.356;2023-04-07T09:03:31;4.57;;;3.72;;
54745;SDS011;40640;48.130;11.356;2023-04-07T09:07:36;7.03;;;3.72;;
54745;SDS011;40640;48.130;11.356;2023-04-07T09:11:43;4.57;;;3.55;;
54745;SDS011;40640;48.130;11.356;2023-04-07T09:15:46;3.88;;;3.28;;
54745;SDS011;40640;48.130;11.356;2023-04-07T09:19:49;3.53;;;3.22;;
54745;SDS011;40640;48.130;11.356;2023-04-07T09:23:55;4.03;;;3.42;;
54745;SDS011;40640;48.130;11.356;2023-04-07T09:27:58;3.35;;;3.15;;
54745;SDS011;40640;48.130;11.356;2023-04-07T09:32:02;4.75;;;3.17;;
54745;SDS011;40640;48.130;11.356;2023-04-07T09:36:05;4.15;;;3.13;;
54745;SDS011;40640;48.130;11.356;2023-04-07T09:40:10;3.90;;;3.50;;
54745;SDS011;40640;48.130;11.356;2023-04-07T09:44:13;3.33;;;2.97;;
54745;SDS011;40640;48.130;11.356;2023-04-07T09:48:17;3.88;;;3.38;;
54745;SDS011;40640;48.130;11.356;2023-04-07T09:52:23;6.78;;;3.65;;
54745;SDS011;40640;48.130;11.356;2023-04-07T09:56:29;5.28;;;3.85;;
54745;SDS011;40640;48.130;11.356;2023-04-07T10:00:32;4.50;;;3.63;;
54745;SDS011;40640;48.130;11.356;2023-04-07T10:04:35;6.97;;;4.20;;
54745;SDS011;40640;48.130;11.356;2023-04-07T10:08:39;5.20;;;3.80;;
54745;SDS011;40640;48.130;11.356;2023-04-07T10:12:45;4.38;;;3.60;;
54745;SDS011;40640;48.130;11.356;2023-04-07T10:16:50;3.90;;;3.50;;
54745;SDS011;40640;48.130;11.356;2023-04-07T10:20:55;4.30;;;3.88;;
54745;SDS011;40640;48.130;11.356;2023-04-07T10:24:59;4.88;;;4.10;;
54745;SDS011;40640;48.130;11.356;2023-04-07T10:29:07;4.97;;;4.00;;
54745;SDS011;40640;48.130;11.356;2023-04-07T10:33:12;5.75;;;4.85;;
54745;SDS011;40640;48.130;11.356;2023-04-07T10:37:16;6.63;;;4.30;;
54745;SDS011;40640;48.130;11.356;2023-04-07T10:41:30;6.30;;;4.95;;
54745;SDS011;40640;48.130;11.356;2023-04-07T10:45:55;5.35;;;4.65;;
54745;SDS011;40640;48.130;11.356;2023-04-07T10:50:16;7.00;;;4.60;;
54745;SDS011;40640;48.130;11.356;2023-04-07T10:54:21;6.85;;;4.97;;
54745;SDS011;40640;48.130;11.356;2023-04-07T10:58:29;7.63;;;4.80;;
54745;SDS011;40640;48.130;11.356;2023-04-07T11:02:34;7.25;;;4.50;;
54745;SDS011;40640;48.130;11.356;2023-04-07T11:06:45;7.88;;;5.25;;
54745;SDS011;40640;48.130;11.356;2023-04-07T11:10:48;7.13;;;4.82;;
54745;SDS011;40640;48.130;11.356;2023-04-07T11:14:51;8.32;;;4.68;;
54745;SDS011;40640;48.130;11.356;2023-04-07T11:18:55;9.13;;;4.70;;
54745;SDS011;40640;48.130;11.356;2023-04-07T11:22:58;6.43;;;4.78;;
54745;SDS011;40640;48.130;11.356;2023-04-07T11:27:02;7.28;;;5.13;;
54745;SDS011;40640;48.130;11.356;2023-04-07T11:31:05;6.10;;;4.53;;
54745;SDS011;40640;48.130;11.356;2023-04-07T11:35:10;7.32;;;4.05;;
54745;SDS011;40640;48.130;11.356;2023-04-07T11:39:20;4.55;;;3.88;;
54745;SDS011;40640;48.130;11.356;2023-04-07T11:43:24;4.03;;;3.72;;
54745;SDS011;40640;48.130;11.356;2023-04-07T11:47:33;4.47;;;3.88;;
54745;SDS011;40640;48.130;11.356;2023-04-07T11:51:38;4.97;;;4.20;;
54745;SDS011;40640;48.130;11.356;2023-04-07T11:55:42;4.40;;;4.00;;
54745;SDS011;40640;48.130;11.356;2023-04-07T11:59:45;4.85;;;3.90;;
54745;SDS011;40640;48.130;11.356;2023-04-07T12:03:54;6.05;;;4.47;;
54745;SDS011;40640;48.130;11.356;2023-04-07T12:08:02;4.97;;;4.35;;
54745;SDS011;40640;48.130;11.356;2023-04-07T12:12:05;6.90;;;4.55;;
54745;SDS011;40640;48.130;11.356;2023-04-07T12:16:10;7.57;;;4.70;;
54745;SDS011;40640;48.130;11.356;2023-04-07T12:20:13;6.03;;;4.72;;
54745;SDS011;40640;48.130;11.356;2023-04-07T12:24:18;6.15;;;4.45;;
54745;SDS011;40640;48.130;11.356;2023-04-07T12:28:21;8.73;;;4.00;;
54745;SDS011;40640;48.130;11.356;2023-04-07T12:32:24;6.57;;;4.60;;
54745;SDS011;40640;48.130;11.356;2023-04-07T12:36:27;5.90;;;4.68;;
54745;SDS011;40640;48.130;11.356;2023-04-07T12:40:31;5.00;;;4.50;;
54745;SDS011;40640;48.130;11.356;2023-04-07T12:44:35;6.00;;;4.35;;
54745;SDS011;40640;48.130;11.356;2023-04-07T12:48:38;9.93;;;5.50;;
54745;SDS011;40640;48.130;11.356;2023-04-07T12:52:41;7.47;;;5.10;;
54745;SDS011;40640;48.130;11.356;2023-04-07T12:56:45;6.95;;;4.65;;
54745;SDS011;40640;48.130;11.356;2023-04-07T13:00:48;7.53;;;5.10;;
54745;SDS011;40640;48.130;11.356;2023-04-07T13:04:50;7.43;;;5.30;;
54745;SDS011;40640;48.130;11.356;2023-04-07T13:08:53;15.27;;;5.70;;
54745;SDS011;40640;48.130;11.356;2023-04-07T13:12:58;6.80;;;5.18;;
54745;SDS011;40640;48.130;11.356;2023-04-07T13:17:01;8.00;;;5.57;;
54745;SDS011;40640;48.130;11.356;2023-04-07T13:21:04;8.88;;;5.43;;
54745;SDS011;40640;48.130;11.356;2023-04-07T13:25:27;6.00;;;4.72;;
54745;SDS011;40640;48.130;11.356;2023-04-07T13:29:31;9.02;;;5.65;;
54745;SDS011;40640;48.130;11.356;2023-04-07T13:33:34;11.38;;;5.03;;
54745;SDS011;40640;48.130;11.356;2023-04-07T13:37:38;9.15;;;5.57;;
54745;SDS011;40640;48.130;11.356;2023-04-07T13:41:40;8.02;;;5.47;;
54745;SDS011;40640;48.130;11.356;2023-04-07T13:45:45;7.47;;;5.03;;
54745;SDS011;40640;48.130;11.356;2023-04-07T13:49:47;6.47;;;5.20;;
54745;SDS011;40640;48.130;11.356;2023-04-07T13:53:52;8.65;;;5.75;;
54745;SDS011;40640;48.130;11.356;2023-04-07T13:57:55;7.13;;;5.65;;
54745;SDS011;40640;48.130;11.356;2023-04-07T14:01:59;7.00;;;4.93;;
54745;SDS011;40640;48.130;11.356;2023-04-07T14:06:02;7.60;;;5.15;;
54745;SDS011;40640;48.130;11.356;2023-04-07T14:10:05;8.25;;;4.75;;
54745;SDS011;40640;48.130;11.356;2023-04-07T14:14:11;6.63;;;5.15;;
54745;SDS011;40640;48.130;11.356;2023-04-07T14:18:15;7.07;;;5.28;;
54745;SDS011;40640;48.130;11.356;2023-04-07T14:22:18;9.82;;;5.03;;
54745;SDS011;40640;48.130;11.356;2023-04-07T14:26:21;6.97;;;5.20;;
54745;SDS011;40640;48.130;11.356;2023-04-07T14:30:25;7.97;;;4.50;;
54745;SDS011;40640;48.130;11.356;2023-04-07T14:34:29;6.15;;;4.50;;
54745;SDS011;40640;48.130;11.356;2023-04-07T14:38:32;8.63;;;5.15;;
54745;SDS011;40640;48.130;11.356;2023-04-07T14:42:35;9.13;;;4.97;;
54745;SDS011;40640;48.130;11.356;2023-04-07T14:46:38;6.45;;;4.97;;
54745;SDS011;40640;48.130;11.356;2023-04-07T14:50:44;6.80;;;4.70;;
54745;SDS011;40640;48.130;11.356;2023-04-07T14:54:48;7.07;;;5.18;;
54745;SDS011;40640;48.130;11.356;2023-04-07T14:58:50;6.90;;;4.50;;
54745;SDS011;40640;48.130;11.356;2023-04-07T15:02:53;6.93;;;4.78;;
54745;SDS011;40640;48.130;11.356;2023-04-07T15:06:58;5.85;;;4.43;;
54745;SDS011;40640;48.130;11.356;2023-04-07T15:11:02;10.57;;;4.35;;
54745;SDS011;40640;48.130;11.356;2023-04-07T15:15:06;11.00;;;4.93;;
54745;SDS011;40640;48.130;11.356;2023-04-07T15:19:09;7.60;;;4.93;;
54745;SDS011;40640;48.130;11.356;2023-04-07T15:23:13;8.98;;;5.15;;
54745;SDS011;40640;48.130;11.356;2023-04-07T15:27:16;7.72;;;5.28;;
54745;SDS011;40640;48.130;11.356;2023-04-07T15:31:19;8.15;;;5.00;;
54745;SDS011;40640;48.130;11.356;2023-04-07T15:35:23;7.43;;;5.18;;
54745;SDS011;40640;48.130;11.356;2023-04-07T15:39:28;11.50;;;5.40;;
54745;SDS011;40640;48.130;11.356;2023-04-07T15:43:30;10.13;;;5.80;;
54745;SDS011;40640;48.130;11.356;2023-04-07T15:47:34;6.70;;;5.10;;
54745;SDS011;40640;48.130;11.356;2023-04-07T15:51:37;8.15;;;5.18;;
54745;SDS011;40640;48.130;11.356;2023-04-07T15:55:42;10.07;;;5.82;;
54745;SDS011;40640;48.130;11.356;2023-04-07T15:59:45;10.38;;;5.05;;
54745;SDS011;40640;48.130;11.356;2023-04-07T16:03:47;9.45;;;5.60;;
54745;SDS011;40640;48.130;11.356;2023-04-07T16:07:51;8.07;;;5.72;;
54745;SDS011;40640;48.130;11.356;2023-04-07T16:11:56;6.30;;;4.78;;
54745;SDS011;40640;48.130;11.356;2023-04-07T16:15:59;6.55;;;4.70;;
54745;SDS011;40640;48.130;11.356;2023-04-07T16:20:02;9.98;;;5.40;;
54745;SDS011;40640;48.130;11.356;2023-04-07T16:24:05;9.13;;;5.95;;
54745;SDS011;40640;48.130;11.356;2023-04-07T16:28:09;7.88;;;5.20;;
54745;SDS011;40640;48.130;11.356;2023-04-07T16:32:12;7.57;;;5.45;;
54745;SDS011;40640;48.130;11.356;2023-04-07T16:36:15;7.25;;;5.28;;
54745;SDS011;40640;48.130;11.356;2023-04-07T16:40:18;8.48;;;5.20;;
54745;SDS011;40640;48.130;11.356;2023-04-07T16:44:22;7.97;;;5.50;;
54745;SDS011;40640;48.130;11.356;2023-04-07T16:48:26;7.38;;;5.57;;
54745;SDS011;40640;48.130;11.356;2023-04-07T16:52:29;7.75;;;5.82;;
54745;SDS011;40640;48.130;11.356;2023-04-07T16:56:32;9.93;;;5.63;;
54745;SDS011;40640;48.130;11.356;2023-04-07T17:00:36;10.52;;;6.18;;
54745;SDS011;40640;48.130;11.356;2023-04-07T17:04:39;8.63;;;6.00;;
54745;SDS011;40640;48.130;11.356;2023-04-07T17:08:42;12.43;;;5.15;;
54745;SDS011;40640;48.130;11.356;2023-04-07T17:12:45;9.80;;;6.10;;
54745;SDS011;40640;48.130;11.356;2023-04-07T17:16:53;12.88;;;5.57;;
54745;SDS011;40640;48.130;11.356;2023-04-07T17:20:57;10.60;;;5.53;;
54745;SDS011;40640;48.130;11.356;2023-04-07T17:25:00;9.00;;;5.35;;
54745;SDS011;40640;48.130;11.356;2023-04-07T17:29:02;10.32;;;5.72;;
54745;SDS011;40640;48.130;11.356;2023-04-07T17:33:07;8.20;;;5.00;;
54745;SDS011;40640;48.130;11.356;2023-04-07T17:37:10;11.07;;;6.10;;
54745;SDS011;40640;48.130;11.356;2023-04-07T17:41:13;10.50;;;5.50;;
54745;SDS011;40640;48.130;11.356;2023-04-07T17:45:16;8.57;;;5.70;;
54745;SDS011;40640;48.130;11.356;2023-04-07T17:49:20;9.48;;;5.55;;
54745;SDS011;40640;48.130;11.356;2023-04-07T17:53:24;8.00;;;5.60;;
54745;SDS011;40640;48.130;11.356;2023-04-07T17:57:27;11.23;;;5.43;;
54745;SDS011;40640;48.130;11.356;2023-04-07T18:01:30;9.32;;;5.80;;
54745;SDS011;40640;48.130;11.356;2023-04-07T18:05:35;9.45;;;5.72;;
54745;SDS011;40640;48.130;11.356;2023-04-07T18:09:38;11.13;;;6.10;;
54745;SDS011;40640;48.130;11.356;2023-04-07T18:13:41;8.75;;;6.70;;
54745;SDS011;40640;48.130;11.356;2023-04-07T18:17:45;10.20;;;7.60;;
54745;SDS011;40640;48.130;11.356;2023-04-07T18:21:54;12.57;;;7.28;;
54745;SDS011;40640;48.130;11.356;2023-04-07T18:25:57;12.27;;;7.30;;
54745;SDS011;40640;48.130;11.356;2023-04-07T18:30:03;13.13;;;7.90;;
54745;SDS011;40640;48.130;11.356;2023-04-07T18:34:07;17.15;;;7.88;;
54745;SDS011;40640;48.130;11.356;2023-04-07T18:38:11;12.40;;;7.60;;
54745;SDS011;40640;48.130;11.356;2023-04-07T18:42:14;11.45;;;7.93;;
54745;SDS011;40640;48.130;11.356;2023-04-07T18:46:17;13.25;;;8.25;;
54745;SDS011;40640;48.130;11.356;2023-04-07T18:50:20;10.68;;;7.80;;
54745;SDS011;40640;48.130;11.356;2023-04-07T18:54:24;11.00;;;7.25;;
54745;SDS011;40640;48.130;11.356;2023-04-07T18:58:28;8.73;;;7.10;;
54745;SDS011;40640;48.130;11.356;2023-04-07T19:02:32;11.23;;;7.13;;
54745;SDS011;40640;48.130;11.356;2023-04-07T19:06:35;11.00;;;7.03;;
54745;SDS011;40640;48.130;11.356;2023-04-07T19:10:39;10.75;;;6.78;;
54745;SDS011;40640;48.130;11.356;2023-04-07T19:14:42;11.82;;;7.55;;
54745;SDS011;40640;48.130;11.356;2023-04-07T19:18:45;13.60;;;7.82;;
54745;SDS011;40640;48.130;11.356;2023-04-07T19:22:47;16.92;;;8.60;;
54745;SDS011;40640;48.130;11.356;2023-04-07T19:26:52;13.63;;;8.70;;
54745;SDS011;40640;48.130;11.356;2023-04-07T19:30:57;12.73;;;7.78;;
54745;SDS011;40640;48.130;11.356;2023-04-07T19:35:00;15.07;;;7.80;;
54745;SDS011;40640;48.130;11.356;2023-04-07T19:39:02;15.75;;;8.45;;
54745;SDS011;40640;48.130;11.356;2023-04-07T19:43:07;15.90;;;9.10;;
54745;SDS011;40640;48.130;11.356;2023-04-07T19:47:09;13.10;;;8.70;;
54745;SDS011;40640;48.130;11.356;2023-04-07T19:51:12;13.40;;;8.77;;
54745;SDS011;40640;48.130;11.356;2023-04-07T19:55:16;12.20;;;8.23;;
54745;SDS011;40640;48.130;11.356;2023-04-07T19:59:21;12.45;;;8.25;;
54745;SDS011;40640;48.130;11.356;2023-04-07T20:03:24;9.93;;;7.13;;
54745;SDS011;40640;48.130;11.356;2023-04-07T20:07:27;11.80;;;6.82;;
54745;SDS011;40640;48.130;11.356;2023-04-07T20:11:33;11.52;;;6.32;;
54745;SDS011;40640;48.130;11.356;2023-04-07T20:15:37;18.00;;;10.20;;
54745;SDS011;40640;48.130;11.356;2023-04-07T20:19:40;15.25;;;10.48;;
54745;SDS011;40640;48.130;11.356;2023-04-07T20:23:43;23.17;;;13.77;;
54745;SDS011;40640;48.130;11.356;2023-04-07T20:27:46;10.23;;;7.10;;
54745;SDS011;40640;48.130;11.356;2023-04-07T20:31:52;9.93;;;6.32;;
54745;SDS011;40640;48.130;11.356;2023-04-07T20:35:55;9.10;;;7.03;;
54745;SDS011;40640;48.130;11.356;2023-04-07T20:39:58;14.38;;;8.10;;
54745;SDS011;40640;48.130;11.356;2023-04-07T20:44:01;10.55;;;7.10;;
54745;SDS011;40640;48.130;11.356;2023-04-07T20:48:06;13.95;;;8.05;;
54745;SDS011;40640;48.130;11.356;2023-04-07T20:52:08;11.52;;;7.60;;
54745;SDS011;40640;48.130;11.356;2023-04-07T20:56:11;28.88;;;16.38;;
54745;SDS011;40640;48.130;11.356;2023-04-07T21:00:14;13.60;;;8.75;;
54745;SDS011;40640;48.130;11.356;2023-04-07T21:04:20;13.85;;;8.20;;
54745;SDS011;40640;48.130;11.356;2023-04-07T21:08:25;12.20;;;8.20;;
54745;SDS011;40640;48.130;11.356;2023-04-07T21:12:28;12.55;;;8.40;;
54745;SDS011;40640;48.130;11.356;2023-04-07T21:16:30;15.95;;;8.68;;
54745;SDS011;40640;48.130;11.356;2023-04-07T21:20:35;14.15;;;8.15;;
54745;SDS011;40640;48.130;11.356;2023-04-07T21:24:39;12.73;;;7.68;;
54745;SDS011;40640;48.130;11.356;2023-04-07T21:28:41;11.00;;;7.63;;
54745;SDS011;40640;48.130;11.356;2023-04-07T21:32:44;13.63;;;8.15;;
54745;SDS011;40640;48.130;11.356;2023-04-07T21:36:49;13.95;;;8.88;;
54745;SDS011;40640;48.130;11.356;2023-04-07T21:40:51;15.55;;;9.05;;
54745;SDS011;40640;48.130;11.356;2023-04-07T21:44:54;14.65;;;8.55;;
54745;SDS011;40640;48.130;11.356;2023-04-07T21:48:57;16.27;;;8.40;;
54745;SDS011;40640;48.130;11.356;2023-04-07T21:53:01;14.45;;;9.05;;
54745;SDS011;40640;48.130;11.356;2023-04-07T21:57:04;11.50;;;8.23;;
54745;SDS011;40640;48.130;11.356;2023-04-07T22:01:07;13.93;;;8.75;;
54745;SDS011;40640;48.130;11.356;2023-04-07T22:05:11;15.05;;;8.38;;
54745;SDS011;40640;48.130;11.356;2023-04-07T22:09:15;15.60;;;8.90;;
54745;SDS011;40640;48.130;11.356;2023-04-07T22:13:18;11.45;;;8.02;;
54745;SDS011;40640;48.130;11.356;2023-04-07T22:17:21;16.25;;;9.32;;
54745;SDS011;40640;48.130;11.356;2023-04-07T22:21:24;13.25;;;7.78;;
54745;SDS011;40640;48.130;11.356;2023-04-07T22:25:28;14.30;;;8.90;;
54745;SDS011;40640;48.130;11.356;2023-04-07T22:29:31;16.10;;;9.75;;
54745;SDS011;40640;48.130;11.356;2023-04-07T22:33:34;18.40;;;9.05;;
54745;SDS011;40640;48.130;11.356;2023-04-07T22:37:38;18.77;;;11.20;;
54745;SDS011;40640;48.130;11.356;2023-04-07T22:41:42;28.05;;;13.65;;
54745;SDS011;40640;48.130;11.356;2023-04-07T22:45:45;32.22;;;14.60;;
54745;SDS011;40640;48.130;11.356;2023-04-07T22:49:47;155.00;;;51.50;;
54745;SDS011;40640;48.130;11.356;2023-04-07T22:53:51;199.38;;;69.60;;
54745;SDS011;40640;48.130;11.356;2023-04-07T22:57:55;32.83;;;18.02;;
54745;SDS011;40640;48.130;11.356;2023-04-07T23:01:57;15.27;;;10.35;;
54745;SDS011;40640;48.130;11.356;2023-04-07T23:06:00;17.95;;;11.00;;
54745;SDS011;40640;48.130;11.356;2023-04-07T23:10:05;14.50;;;9.13;;
54745;SDS011;40640;48.130;11.356;2023-04-07T23:14:10;24.65;;;12.10;;
54745;SDS011;40640;48.130;11.356;2023-04-07T23:18:13;15.73;;;10.43;;
54745;SDS011;40640;48.130;11.356;2023-04-07T23:22:16;14.75;;;9.77;;
54745;SDS011;40640;48.130;11.356;2023-04-07T23:26:19;16.40;;;9.82;;
54745;SDS011;40640;48.130;11.356;2023-04-07T23:30:23;15.88;;;10.40;;
54745;SDS011;40640;48.130;11.356;2023-04-07T23:34:26;13.05;;;9.10;;
54745;SDS011;40640;48.130;11.356;2023-04-07T23:38:29;14.38;;;8.55;;
54745;SDS011;40640;48.130;11.356;2023-04-07T23:42:32;30.33;;;14.27;;
54745;SDS011;40640;48.130;11.356;2023-04-07T23:46:36;18.30;;;11.02;;
54745;SDS011;40640;48.130;11.356;2023-04-07T23:50:40;15.10;;;9.05;;
54745;SDS011;40640;48.130;11.356;2023-04-07T23:54:42;14.13;;;8.70;;
54745;SDS011;40640;48.130;11.356;2023-04-07T23:58:46;15.40;;;7.95;;
